Time;durP1;ratioP1;P1;durP2;ratioP2;P2;SDS_P1;SDS_P2;PMS_P1;PMS_P2;Temp;Humidity;BMP_temperature;BMP_pressure;BME280_temperature;BME280_humidity;BME280_pressure;Samples;Min_cycle;Max_cycle;Signal;HPM_P1;HPM_P2
2021/04/28 00:00:30;;;;;;;2.45;1.45;;;7.30;49.30;;;9.76;39.73;100847.25;4998851;28;98125;-68
2021/04/28 00:03:00;;;;;;;0.47;0.47;;;7.30;49.30;;;9.72;40.22;100840.09;4998147;28;97910;-68
2021/04/28 00:05:30;;;;;;;0.73;0.73;;;7.30;49.30;;;9.71;39.86;100843.84;4990122;28;97348;-68
2021/04/28 00:07:59;;;;;;;1.35;1.08;;;7.30;49.30;;;9.66;40.22;100833.25;4993624;28;97076;-68
2021/04/28 00:10:31;;;;;;;0.40;0.40;;;7.20;49.30;;;9.64;40.14;100840.78;4995755;28;97954;-68
2021/04/28 00:13:00;;;;;;;0.65;0.65;;;7.20;49.30;;;9.60;39.82;100831.72;4996258;28;97539;-68
2021/04/28 00:15:36;;;;;;;0.40;0.40;;;7.20;49.30;;;9.54;40.12;100828.34;4998144;28;96800;-68
2021/04/28 00:18:07;;;;;;;0.57;0.57;;;7.20;49.40;;;9.52;40.55;100824.38;5001034;28;97469;-69
2021/04/28 00:20:38;;;;;;;0.40;0.40;;;7.10;49.30;;;9.50;40.52;100821.19;4997273;28;98245;-68
2021/04/28 00:23:10;;;;;;;2.70;1.98;;;7.10;49.40;;;9.46;40.14;100821.00;5002766;28;97216;-68
2021/04/28 00:25:43;;;;;;;0.35;0.30;;;7.10;49.40;;;9.47;40.53;100816.44;4998318;28;97211;-67
2021/04/28 00:28:15;;;;;;;0.32;0.30;;;7.10;49.40;;;9.44;40.30;100812.44;4995678;28;96884;-68
2021/04/28 00:30:43;;;;;;;0.30;0.30;;;7.00;49.30;;;9.43;40.19;100810.09;4992153;28;98175;-68
2021/04/28 00:33:11;;;;;;;1.73;0.93;;;7.10;49.40;;;9.37;40.49;100814.72;4998362;28;98115;-68
2021/04/28 00:35:41;;;;;;;0.47;0.47;;;7.00;49.40;;;9.34;40.25;100804.59;4997194;28;97363;-68
2021/04/28 00:38:09;;;;;;;0.52;0.52;;;7.00;49.40;;;9.32;39.92;100803.31;4989905;28;97162;-68
2021/04/28 00:40:40;;;;;;;0.93;0.90;;;7.00;49.40;;;9.33;40.31;100800.34;4994243;28;97998;-68
2021/04/28 00:43:09;;;;;;;0.52;0.52;;;6.90;49.40;;;9.29;40.08;100791.31;4994996;28;97618;-68
2021/04/28 00:45:38;;;;;;;0.77;0.70;;;6.90;49.50;;;9.30;40.20;100800.09;5000788;28;96922;-68
2021/04/28 00:48:09;;;;;;;1.25;1.15;;;6.90;49.50;;;9.29;40.08;100798.53;5000280;28;96962;-68
2021/04/28 00:50:45;;;;;;;1.00;1.00;;;6.90;49.50;;;9.28;39.79;100788.91;4995426;28;98186;-68
2021/04/28 00:53:20;;;;;;;0.22;0.22;;;6.80;49.50;;;9.27;40.45;100787.34;5012970;28;97862;-67
2021/04/28 00:55:50;;;;;;;2.65;0.85;;;6.80;49.50;;;9.27;40.10;100786.56;4996970;28;97335;-67
2021/04/28 00:58:22;;;;;;;0.70;0.70;;;6.80;49.50;;;9.24;40.17;100781.78;4998429;28;96908;-68
2021/04/28 01:00:52;;;;;;;0.20;0.20;;;6.80;49.50;;;9.20;40.37;100778.91;5002576;28;98011;-68
2021/04/28 01:03:22;;;;;;;2.08;0.77;;;6.70;49.50;;;9.18;40.40;100780.28;5002215;28;98362;-68
2021/04/28 01:05:55;;;;;;;0.13;0.13;;;6.70;49.60;;;9.17;40.02;100784.03;5003480;28;115490;-68
2021/04/28 01:08:25;;;;;;;0.68;0.68;;;6.70;49.60;;;9.18;39.92;100778.41;5002003;28;96932;-68
2021/04/28 01:10:55;;;;;;;0.82;0.80;;;6.70;49.60;;;9.18;40.16;100781.06;4984686;28;100082;-68
2021/04/28 01:13:25;;;;;;;0.68;0.68;;;6.70;49.60;;;9.15;40.10;100778.97;4997298;28;97967;-67
2021/04/28 01:15:55;;;;;;;1.58;1.33;;;6.60;49.60;;;9.09;40.46;100776.66;4994139;28;96924;-67
2021/04/28 01:18:23;;;;;;;0.20;0.20;;;6.60;49.60;;;9.08;40.35;100781.22;5000934;28;96817;-68
2021/04/28 01:20:52;;;;;;;0.52;0.52;;;6.60;49.60;;;9.06;39.99;100778.06;5001325;28;98041;-67
2021/04/28 01:23:21;;;;;;;0.63;0.63;;;6.60;49.60;;;9.06;39.98;100769.22;5009149;28;98149;-68
2021/04/28 01:25:52;;;;;;;0.38;0.38;;;6.60;49.60;;;9.03;40.11;100767.13;4998637;28;97326;-68
2021/04/28 01:28:24;;;;;;;0.40;0.40;;;6.60;50.20;;;8.97;40.11;100763.75;5005979;28;97506;-68
2021/04/28 01:31:04;;;;;;;0.60;0.60;;;6.60;49.60;;;8.93;40.18;100767.28;5004237;28;99780;-68
2021/04/28 01:33:37;;;;;;;0.40;0.40;;;6.50;49.50;;;8.94;40.14;100761.66;5003343;28;97035;-68
2021/04/28 01:36:14;;;;;;;2.53;1.75;;;6.50;49.50;;;8.99;39.88;100761.56;5001296;28;96818;-68
2021/04/28 01:38:47;;;;;;;1.75;1.23;;;6.50;49.60;;;8.91;40.14;100759.56;5002500;28;97179;-68
2021/04/28 01:41:16;;;;;;;0.10;0.10;;;6.50;49.60;;;8.83;40.63;100762.88;4988859;28;98046;-68
2021/04/28 01:43:45;;;;;;;0.32;0.32;;;6.50;49.60;;;8.76;40.79;100759.78;4997609;28;97731;-68
2021/04/28 01:46:15;;;;;;;1.20;0.32;;;6.50;49.60;;;8.75;40.76;100755.53;4995525;28;96724;-68
2021/04/28 01:48:46;;;;;;;0.20;0.20;;;6.40;49.60;;;8.72;40.80;100760.66;4980354;28;98187;-68
2021/04/28 01:51:15;;;;;;;3.47;1.63;;;6.40;49.60;;;8.76;40.51;100758.97;4999365;28;97987;-67
2021/04/28 01:53:45;;;;;;;0.20;0.20;;;6.40;49.70;;;8.71;40.66;100759.88;5009298;28;97980;-68
2021/04/28 01:56:14;;;;;;;1.35;0.60;;;6.30;49.70;;;8.68;40.42;100752.41;5006509;28;96749;-68
2021/04/28 01:59:06;;;;;;;0.50;0.50;;;6.30;49.70;;;8.61;41.02;100754.66;4985886;28;96801;-68
2021/04/28 02:01:55;;;;;;;4.88;0.85;;;6.30;49.70;;;8.65;40.41;100752.97;4995298;28;97824;-68
2021/04/28 02:04:27;;;;;;;0.20;0.20;;;6.20;49.70;;;8.55;41.21;100752.31;5004716;28;97490;-68
2021/04/28 02:07:03;;;;;;;0.30;0.30;;;6.20;49.70;;;8.51;40.34;100752.13;4999163;28;98048;-68
2021/04/28 02:09:35;;;;;;;0.65;0.65;;;6.20;49.70;;;8.46;40.83;100746.84;4997136;28;97459;-68
2021/04/28 02:12:07;;;;;;;0.35;0.35;;;6.20;49.80;;;8.42;40.96;100745.84;4985213;28;96902;-68
2021/04/28 02:14:41;;;;;;;0.60;0.50;;;6.10;49.70;;;8.38;41.08;100744.78;4984689;28;97539;-68
2021/04/28 02:17:36;;;;;;;1.55;0.82;;;6.10;49.80;;;8.30;41.27;100739.31;5009420;28;97311;-68
2021/04/28 02:20:10;;;;;;;0.50;0.50;;;6.10;49.80;;;8.30;41.19;100744.66;5003901;28;96975;-68
2021/04/28 02:22:46;;;;;;;1.40;1.30;;;6.10;49.80;;;8.40;40.35;100747.97;5013335;28;97886;-68
2021/04/28 02:25:20;;;;;;;0.20;0.20;;;6.00;49.80;;;8.36;40.92;100741.63;4999188;28;97657;-68
2021/04/28 02:27:56;;;;;;;1.42;1.33;;;6.00;49.80;;;8.31;40.86;100741.69;4994234;28;97367;-68
2021/04/28 02:30:30;;;;;;;0.50;0.50;;;6.00;49.80;;;8.32;40.53;100748.63;5000312;28;96885;-68
2021/04/28 02:32:59;;;;;;;0.90;0.52;;;6.00;49.80;;;8.26;40.82;100738.31;5003077;28;96778;-68
2021/04/28 02:35:49;;;;;;;0.65;0.65;;;5.90;49.80;;;8.15;40.63;100744.81;4993463;28;96739;-67
2021/04/28 02:38:47;;;;;;;0.55;0.55;;;5.90;49.90;;;8.13;40.37;100737.09;5002217;28;97378;-68
2021/04/28 02:41:26;;;;;;;2.30;2.10;;;5.90;49.90;;;8.13;40.54;100734.44;5000567;28;98097;-68
2021/04/28 02:43:55;;;;;;;0.52;0.52;;;5.90;49.90;;;8.11;41.10;100733.13;5000064;28;96900;-68
2021/04/28 02:46:33;;;;;;;0.57;0.57;;;5.80;49.90;;;8.08;40.40;100726.47;5001001;28;97269;-69
2021/04/28 02:49:06;;;;;;;1.07;1.03;;;5.80;49.90;;;8.09;41.17;100727.28;5004450;28;97563;-68
2021/04/28 02:51:40;;;;;;;1.30;1.20;;;5.80;49.90;;;8.04;41.29;100732.66;4997037;27;97402;-68
2021/04/28 02:54:35;;;;;;;0.60;0.60;;;5.70;49.90;;;8.02;40.62;100729.50;4996524;28;97974;-68
2021/04/28 02:57:06;;;;;;;0.43;0.43;;;5.70;50.00;;;7.97;40.85;100724.22;4997802;28;97686;-68
2021/04/28 02:59:34;;;;;;;0.45;0.45;;;5.70;49.90;;;7.97;40.61;100727.66;4992352;28;97478;-68
2021/04/28 03:02:08;;;;;;;11.10;0.80;;;5.70;50.00;;;7.96;40.40;100730.63;5011953;28;97064;-68
2021/04/28 03:04:40;;;;;;;1.35;1.05;;;5.70;50.00;;;7.91;40.74;100723.47;4996713;28;98113;-68
2021/04/28 03:07:22;;;;;;;0.93;0.85;;;5.60;49.90;;;7.82;41.01;100719.03;5004809;28;98938;-68
2021/04/28 03:09:50;;;;;;;0.30;0.30;;;5.60;50.00;;;7.79;41.50;100733.72;4996258;28;97269;-68
2021/04/28 03:12:22;;;;;;;0.40;0.40;;;5.60;50.00;;;7.77;40.93;100725.22;4999285;28;96900;-68
2021/04/28 03:14:55;;;;;;;0.10;0.10;;;5.60;50.00;;;7.76;41.30;100725.50;4981982;28;97992;-68
2021/04/28 03:17:25;;;;;;;0.85;0.85;;;5.50;50.00;;;7.74;40.96;100725.00;4994895;28;97683;-68
2021/04/28 03:19:58;;;;;;;0.40;0.40;;;5.50;50.00;;;7.75;41.32;100723.94;4996542;28;97100;-68
2021/04/28 03:22:33;;;;;;;0.32;0.32;;;5.50;50.00;;;7.70;41.39;100719.44;4993084;28;97407;-68
2021/04/28 03:25:03;;;;;;;3.30;1.27;;;5.50;50.10;;;7.68;41.11;100718.91;4998697;28;98073;-67
2021/04/28 03:27:32;;;;;;;5.07;0.82;;;5.40;50.00;;;7.65;40.75;100718.69;4993855;28;98285;-68
2021/04/28 03:30:00;;;;;;;0.28;0.28;;;5.40;50.00;;;7.64;41.50;100722.41;4998404;28;96957;-67
2021/04/28 03:32:30;;;;;;;0.43;0.40;;;5.40;50.00;;;7.63;40.57;100717.38;4999399;28;97511;-68
2021/04/28 03:35:21;;;;;;;0.43;0.40;;;5.40;50.10;;;7.64;41.33;100721.66;4994165;28;96888;-68
2021/04/28 03:38:09;;;;;;;0.30;0.30;;;5.40;50.10;;;7.61;40.85;100722.22;4996458;28;97997;-69
2021/04/28 03:40:37;;;;;;;0.38;0.38;;;5.30;50.00;;;7.57;41.19;100721.19;5003769;28;96777;-68
2021/04/28 03:43:06;;;;;;;1.15;0.75;;;5.30;50.10;;;7.56;41.88;100723.03;4983526;28;97203;-68
2021/04/28 03:45:35;;;;;;;0.63;0.63;;;5.30;50.10;;;7.60;41.21;100720.63;4983016;28;98565;-68
2021/04/28 03:48:05;;;;;;;1.55;1.13;;;5.30;50.20;;;7.56;41.49;100724.94;4997367;28;96965;-67
2021/04/28 03:50:34;;;;;;;0.30;0.30;;;5.20;50.10;;;7.48;41.38;100717.53;4995958;28;96877;-68
2021/04/28 03:53:09;;;;;;;0.10;0.10;;;5.20;50.10;;;7.48;41.35;100712.19;5008074;28;96803;-67
2021/04/28 03:55:53;;;;;;;0.38;0.38;;;5.20;50.20;;;7.43;41.07;100717.56;4999016;28;96947;-70
2021/04/28 03:58:22;;;;;;;1.55;1.45;;;5.20;50.20;;;7.42;41.01;100719.47;5000462;28;97886;-68
2021/04/28 04:00:55;;;;;;;3.80;3.47;;;5.20;50.30;;;7.44;41.50;100721.84;4986515;28;96886;-68
2021/04/28 04:03:33;;;;;;;0.98;0.98;;;5.10;50.20;;;7.42;40.96;100716.81;5000646;28;97013;-67
2021/04/28 04:06:20;;;;;;;0.50;0.50;;;5.10;50.20;;;7.39;40.49;100717.38;4995827;28;97510;-68
2021/04/28 04:09:17;;;;;;;0.50;0.50;;;5.10;50.30;;;7.37;40.79;100711.53;5001242;28;97707;-68
2021/04/28 04:11:46;;;;;;;0.40;0.40;;;5.10;50.30;;;7.39;41.16;100713.88;4994523;28;97592;-68
2021/04/28 04:14:25;;;;;;;0.77;0.77;;;5.00;50.30;;;7.37;40.81;100716.03;5000619;28;97759;-68
2021/04/28 04:16:54;;;;;;;0.85;0.60;;;5.00;50.30;;;7.35;40.53;100718.19;4994207;28;96805;-69
2021/04/28 04:19:22;;;;;;;2.20;0.50;;;5.00;50.30;;;7.37;41.39;100713.38;4997559;28;97631;-68
2021/04/28 04:22:14;;;;;;;0.30;0.30;;;5.00;50.30;;;7.34;40.83;100716.59;4992178;28;97051;-67
2021/04/28 04:25:10;;;;;;;0.50;0.50;;;5.00;50.30;;;7.31;41.12;100709.94;5001088;28;97214;-68
2021/04/28 04:27:39;;;;;;;2.63;1.23;;;5.00;50.30;;;7.33;41.09;100715.78;5009521;28;98276;-68
2021/04/28 04:30:21;;;;;;;3.83;0.47;;;4.90;50.30;;;7.35;41.09;100713.66;5002013;28;96962;-68
2021/04/28 04:33:05;;;;;;;1.10;0.88;;;4.90;50.30;;;7.36;40.93;100719.78;4996212;28;97656;-68
2021/04/28 04:35:51;;;;;;;2.10;1.45;;;4.90;50.40;;;7.36;41.05;100720.59;4999604;28;97540;-68
2021/04/28 04:38:51;;;;;;;0.20;0.20;;;4.90;50.40;;;7.39;40.60;100716.56;5003560;28;97921;-68
2021/04/28 04:41:51;;;;;;;0.85;0.63;;;4.90;50.40;;;7.39;41.18;100721.88;4988594;28;98735;-67
2021/04/28 04:44:39;;;;;;;0.73;0.73;;;4.90;50.50;;;7.37;40.53;100716.03;4999185;28;97301;-68
2021/04/28 04:47:09;;;;;;;1.52;0.85;;;4.90;50.50;;;7.37;41.05;100722.19;5000106;28;97148;-68
2021/04/28 04:49:39;;;;;;;0.43;0.40;;;4.90;50.50;;;7.38;41.17;100715.78;4983077;28;98779;-68
2021/04/28 04:52:07;;;;;;;1.10;1.08;;;4.90;50.50;;;7.39;41.34;100725.38;5004647;28;97775;-68
2021/04/28 04:54:34;;;;;;;0.43;0.30;;;4.90;50.50;;;7.42;41.08;100721.31;4996216;28;97157;-67
2021/04/28 04:57:03;;;;;;;0.52;0.52;;;4.90;50.50;;;7.41;41.36;100722.41;5000868;28;101600;-68
2021/04/28 04:59:31;;;;;;;0.63;0.55;;;5.00;50.50;;;7.42;40.37;100724.78;4999823;28;98065;-68
2021/04/28 05:01:59;;;;;;;0.30;0.30;;;5.00;50.60;;;7.46;40.85;100722.34;4998049;28;97966;-68
2021/04/28 05:04:31;;;;;;;0.43;0.43;;;5.00;51.10;;;7.52;40.88;100724.69;4995896;28;97225;-67
2021/04/28 05:06:59;;;;;;;0.38;0.38;;;5.00;50.60;;;7.58;40.88;100725.44;4998284;28;97055;-69
2021/04/28 05:09:30;;;;;;;1.10;0.40;;;5.10;50.60;;;7.60;41.27;100725.97;5003161;28;97931;-68
2021/04/28 05:11:57;;;;;;;0.45;0.45;;;5.10;50.50;;;7.65;40.53;100725.91;4996161;28;98427;-68
2021/04/28 05:14:26;;;;;;;1.80;1.05;;;5.10;50.50;;;7.70;40.31;100732.75;4994050;28;97255;-67
2021/04/28 05:16:53;;;;;;;0.57;0.57;;;5.10;50.50;;;7.75;40.29;100729.25;5002552;28;96948;-68
2021/04/28 05:19:21;;;;;;;1.35;1.08;;;5.20;50.50;;;7.81;40.44;100722.78;4998572;28;97735;-68
2021/04/28 05:21:50;;;;;;;0.73;0.73;;;5.20;50.50;;;7.88;40.90;100729.38;4979862;28;98577;-68
2021/04/28 05:24:18;;;;;;;0.50;0.50;;;5.30;50.50;;;7.92;40.25;100730.41;5001749;28;97302;-68
2021/04/28 05:26:54;;;;;;;0.20;0.20;;;5.30;50.50;;;7.98;41.00;100728.47;4993692;28;97178;-68
2021/04/28 05:29:22;;;;;;;0.38;0.38;;;5.40;51.20;;;8.10;40.09;100724.31;4999683;28;97743;-68
2021/04/28 05:31:49;;;;;;;1.75;1.20;;;5.40;50.50;;;8.24;40.03;100727.91;4998060;28;97641;-69
2021/04/28 05:34:17;;;;;;;1.45;0.75;;;5.50;50.60;;;8.38;40.63;100726.13;4997922;28;96744;-68
2021/04/28 05:36:45;;;;;;;1.60;1.08;;;5.60;50.50;;;8.59;39.87;100730.09;4996045;28;97218;-68
2021/04/28 05:39:13;;;;;;;0.50;0.50;;;5.80;50.50;;;8.91;40.30;100727.50;4999760;28;97818;-68
2021/04/28 05:41:41;;;;;;;0.82;0.82;;;6.10;50.60;;;9.38;39.98;100719.25;4986494;28;98544;-68
2021/04/28 05:44:09;;;;;;;0.15;0.15;;;6.30;50.60;;;9.93;39.24;100715.56;4996221;28;102243;-68
2021/04/28 05:46:38;;;;;;;0.30;0.30;;;6.60;50.80;;;10.41;39.25;100714.03;4995669;28;97123;-68
2021/04/28 05:49:06;;;;;;;0.45;0.45;;;7.00;50.90;;;10.79;39.35;100716.13;4995003;28;98040;-68
2021/04/28 05:51:34;;;;;;;0.30;0.30;;;7.40;51.00;;;11.29;39.70;100709.56;4997721;28;96901;-68
2021/04/28 05:54:09;;;;;;;1.48;0.47;;;7.80;51.10;;;12.03;38.83;100709.47;5002294;28;96845;-68
2021/04/28 05:56:39;;;;;;;1.02;0.70;;;8.30;51.40;;;12.79;38.31;100711.47;5003946;28;97236;-68
2021/04/28 05:59:13;;;;;;;0.88;0.25;;;8.70;51.50;;;13.38;38.27;100711.44;4995917;28;98234;-68
2021/04/28 06:01:41;;;;;;;0.22;0.22;;;9.30;51.70;;;13.76;38.70;100709.59;4996010;28;98340;-68
2021/04/28 06:04:09;;;;;;;0.60;0.30;;;9.80;51.70;;;14.26;38.72;100700.47;5002845;28;97298;-68
2021/04/28 06:06:37;;;;;;;0.90;0.47;;;10.20;51.60;;;14.83;38.90;100701.50;4997029;28;96857;-69
2021/04/28 06:09:05;;;;;;;0.45;0.45;;;10.70;51.70;;;15.45;38.36;100704.91;4997153;28;98111;-68
2021/04/28 06:11:33;;;;;;;1.45;1.05;;;11.20;51.60;;;15.96;37.77;100693.47;4982268;28;98938;-68
2021/04/28 06:14:06;;;;;;;0.52;0.52;;;11.70;51.50;;;16.49;37.81;100691.31;5002421;28;96805;-69
2021/04/28 06:16:33;;;;;;;1.10;0.50;;;12.10;51.50;;;17.08;37.32;100696.84;4999960;28;98112;-68
2021/04/28 06:19:02;;;;;;;1.30;0.20;;;12.60;51.50;;;17.43;38.34;100698.63;4996187;28;97852;-69
2021/04/28 06:21:30;;;;;;;0.32;0.32;;;13.00;51.40;;;17.66;38.65;100689.53;4990760;28;97251;-69
2021/04/28 06:23:58;;;;;;;0.45;0.45;;;13.40;51.40;;;17.93;38.02;100685.97;4986094;28;97285;-66
2021/04/28 06:26:25;;;;;;;1.23;0.65;;;13.70;51.30;;;18.20;37.76;100682.34;4997560;28;103545;-66
2021/04/28 06:28:54;;;;;;;1.70;0.98;;;14.00;51.20;;;18.47;37.90;100680.66;4995611;28;97874;-66
2021/04/28 06:31:24;;;;;;;0.75;0.60;;;14.30;51.30;;;18.82;38.10;100676.72;5008005;28;97854;-66
2021/04/28 06:33:52;;;;;;;0.60;0.47;;;14.60;51.30;;;19.14;38.11;100673.50;4993799;28;97357;-66
2021/04/28 06:36:30;;;;;;;1.90;1.05;;;14.90;51.60;;;19.46;37.89;100674.09;4997711;28;97255;-66
2021/04/28 06:38:57;;;;;;;0.70;0.70;;;15.20;51.30;;;19.67;38.61;100674.47;5000985;28;98042;-66
2021/04/28 06:41:25;;;;;;;1.05;0.52;;;15.50;51.30;;;20.04;38.36;100672.75;5002530;28;97787;-66
2021/04/28 06:43:53;;;;;;;0.60;0.47;;;15.70;51.30;;;20.15;38.22;100665.56;4998943;28;97514;-67
2021/04/28 06:46:22;;;;;;;1.30;0.77;;;16.00;51.70;;;20.23;38.87;100665.25;4992495;28;96929;-67
2021/04/28 06:48:49;;;;;;;2.53;1.20;;;16.10;51.10;;;20.34;37.97;100668.94;4992811;28;98100;-67
2021/04/28 06:51:17;;;;;;;2.22;1.05;;;16.20;51.20;;;20.34;38.50;100668.13;4998925;28;97673;-67
2021/04/28 06:53:45;;;;;;;1.23;0.75;;;16.20;51.20;;;20.37;38.70;100657.31;4995992;28;97005;-67
2021/04/28 06:56:12;;;;;;;2.38;0.90;;;16.40;51.30;;;20.62;38.11;100669.31;4996736;28;97196;-67
2021/04/28 06:58:44;;;;;;;0.65;0.63;;;16.50;51.40;;;21.05;38.73;100663.22;5004465;28;99974;-67
2021/04/28 07:01:12;;;;;;;0.68;0.63;;;16.70;51.50;;;21.44;38.03;100670.66;4998063;28;96992;-68
2021/04/28 07:03:41;;;;;;;1.73;0.73;;;17.00;51.40;;;21.64;38.08;100673.97;4993372;28;97452;-67
2021/04/28 07:06:11;;;;;;;0.98;0.85;;;17.20;51.30;;;21.57;38.04;100663.75;4995464;28;97246;-68
2021/04/28 07:08:39;;;;;;;0.73;0.60;;;17.30;51.20;;;21.59;38.17;100661.41;4998155;28;100122;-67
2021/04/28 07:11:08;;;;;;;2.00;0.73;;;17.40;51.20;;;21.80;37.66;100658.91;4991961;28;98159;-68
2021/04/28 07:13:35;;;;;;;1.92;1.48;;;17.50;51.30;;;21.82;38.79;100659.31;4995332;28;96875;-67
2021/04/28 07:16:20;;;;;;;1.10;0.63;;;17.70;51.20;;;21.86;38.53;100657.38;4993604;28;96945;-68
2021/04/28 07:18:48;;;;;;;1.30;0.70;;;17.90;51.20;;;22.19;38.80;100653.72;4995112;28;97831;-68
2021/04/28 07:21:17;;;;;;;1.77;1.45;;;18.00;51.20;;;22.64;37.77;100660.22;4996810;28;97667;-67
2021/04/28 07:23:45;;;;;;;10.20;1.35;;;18.30;51.30;;;23.01;37.42;100649.84;4996320;28;96955;-68
2021/04/28 07:26:13;;;;;;;5.68;1.88;;;18.60;50.90;;;22.99;37.75;100646.72;4997507;28;97324;-68
2021/04/28 07:28:41;;;;;;;1.58;1.08;;;18.60;50.70;;;22.84;38.06;100645.09;4999156;28;98166;-68
2021/04/28 07:31:09;;;;;;;1.58;0.68;;;18.70;50.80;;;22.97;38.07;100642.78;5000171;28;97689;-67
2021/04/28 07:33:37;;;;;;;0.65;0.50;;;18.70;50.90;;;23.16;37.92;100645.22;4995659;28;96835;-67
2021/04/28 07:36:07;;;;;;;0.47;0.45;;;18.90;51.00;;;23.31;37.91;100633.91;4992951;28;96781;-68
2021/04/28 07:38:35;;;;;;;2.53;1.00;;;19.00;50.80;;;23.36;38.00;100636.25;4995617;28;97994;-68
2021/04/28 07:41:05;;;;;;;1.88;0.95;;;19.10;50.80;;;23.58;37.75;100631.59;4998030;28;97105;-68
2021/04/28 07:43:34;;;;;;;1.83;0.70;;;19.30;50.70;;;23.71;37.70;100644.47;4993051;28;97134;-68
2021/04/28 07:46:04;;;;;;;1.70;1.10;;;19.50;50.70;;;23.77;37.82;100634.69;4997575;28;97039;-67
2021/04/28 07:48:32;;;;;;;0.85;0.70;;;19.70;50.60;;;23.88;37.55;100643.72;4983314;28;97916;-68
2021/04/28 07:51:04;;;;;;;2.22;1.23;;;19.80;50.50;;;23.96;37.77;100643.31;4996639;28;97753;-67
2021/04/28 07:53:33;;;;;;;1.33;1.23;;;19.80;50.50;;;24.24;37.38;100640.50;5001439;28;97251;-67
2021/04/28 07:56:03;;;;;;;5.68;1.63;;;20.00;50.50;;;24.35;37.39;100646.78;5000337;28;97906;-68
2021/04/28 07:58:31;;;;;;;0.60;0.60;;;20.20;50.40;;;24.53;37.13;100642.03;4982455;28;98123;-67
2021/04/28 08:00:59;;;;;;;0.85;0.73;;;20.30;50.30;;;24.74;37.10;100628.25;5003494;28;97898;-67
2021/04/28 08:03:26;;;;;;;0.55;0.52;;;20.50;50.20;;;24.65;37.41;100636.13;4995378;28;96964;-67
2021/04/28 08:05:54;;;;;;;3.13;1.40;;;20.50;50.20;;;24.72;37.58;100636.09;5002717;28;98447;-67
2021/04/28 08:08:21;;;;;;;2.75;0.80;;;20.60;50.20;;;24.90;37.25;100638.72;4999994;28;97149;-67
2021/04/28 08:10:50;;;;;;;0.52;0.52;;;20.80;50.20;;;24.98;37.34;100641.03;4999565;28;97894;-67
2021/04/28 08:13:17;;;;;;;50.13;2.22;;;20.90;50.00;;;25.12;37.34;100637.44;5003151;28;97138;-68
2021/04/28 08:15:47;;;;;;;5.57;1.58;;;21.00;50.00;;;25.14;36.96;100630.34;4999896;28;97005;-68
2021/04/28 08:18:14;;;;;;;1.20;0.80;;;21.10;49.90;;;25.11;37.36;100636.66;4997331;28;98228;-68
2021/04/28 08:20:43;;;;;;;3.45;0.73;;;21.20;49.80;;;25.24;37.30;100635.03;5001660;28;97665;-68
2021/04/28 08:23:11;;;;;;;3.65;1.23;;;21.30;49.70;;;25.38;37.21;100637.66;4995915;28;97275;-68
2021/04/28 08:25:39;;;;;;;0.70;0.70;;;21.40;49.70;;;25.40;37.11;100621.59;4995021;28;97278;-68
2021/04/28 08:28:07;;;;;;;1.27;0.90;;;21.50;49.50;;;25.44;36.90;100624.31;4995956;28;96925;-68
2021/04/28 08:30:35;;;;;;;1.58;1.08;;;21.50;49.40;;;25.67;36.66;100628.03;5001946;28;96789;-68
2021/04/28 08:33:14;;;;;;;1.83;1.15;;;21.60;49.50;;;25.87;36.68;100620.84;4997470;28;96840;-68
2021/04/28 08:35:43;;;;;;;0.68;0.68;;;21.80;49.30;;;25.95;36.60;100622.31;4996477;28;96860;-68
2021/04/28 08:38:10;;;;;;;9.52;1.77;;;21.90;49.20;;;25.95;36.42;100620.34;4993517;28;96951;-68
2021/04/28 08:40:38;;;;;;;1.65;1.00;;;22.00;49.10;;;26.02;36.49;100620.28;4982768;28;98232;-68
2021/04/28 08:43:09;;;;;;;0.57;0.50;;;22.00;49.00;;;26.12;36.42;100626.84;4996528;28;97006;-70
2021/04/28 08:45:36;;;;;;;1.88;1.30;;;22.00;49.00;;;26.02;36.14;100623.03;4996993;28;97525;-68
2021/04/28 08:48:06;;;;;;;1.05;0.98;;;22.10;48.90;;;25.90;36.67;100623.53;4998751;28;98412;-68
2021/04/28 08:50:47;;;;;;;1.33;1.20;;;22.00;48.80;;;25.89;36.58;100612.97;5003167;28;97769;-69
2021/04/28 08:53:16;;;;;;;34.22;2.95;;;22.10;48.80;;;25.95;36.08;100614.06;5001008;28;96874;-68
2021/04/28 08:55:51;;;;;;;1.80;1.27;;;22.10;48.90;;;26.15;36.02;100612.31;5014669;28;97904;-68
2021/04/28 08:58:20;;;;;;;1.23;1.10;;;22.20;48.70;;;26.07;36.30;100605.31;4998434;28;97231;-68
2021/04/28 09:00:49;;;;;;;1.38;1.27;;;22.20;48.50;;;25.92;36.19;100609.41;5006794;28;96795;-68
2021/04/28 09:03:19;;;;;;;1.23;1.08;;;22.10;48.50;;;25.95;35.97;100611.34;4996195;28;96842;-69
2021/04/28 09:05:48;;;;;;;1.05;0.90;;;22.10;48.50;;;26.14;36.24;100610.75;4985639;28;96927;-68
2021/04/28 09:08:16;;;;;;;2.15;1.75;;;22.10;48.60;;;26.23;35.67;100600.81;5001394;28;98158;-71
2021/04/28 09:10:45;;;;;;;3.85;1.23;;;22.20;48.30;;;26.27;35.87;100606.28;5001678;28;96850;-69
2021/04/28 09:13:19;;;;;;;0.65;0.63;;;22.30;48.30;;;26.32;35.74;100603.06;4997063;28;96781;-69
2021/04/28 09:15:49;;;;;;;9.48;1.13;;;22.40;48.00;;;26.06;35.58;100595.50;4996280;28;96913;-69
2021/04/28 09:18:20;;;;;;;3.45;1.25;;;22.40;48.00;;;26.02;36.34;100590.06;5002596;28;96885;-68
2021/04/28 09:21:07;;;;;;;1.60;1.50;;;22.40;47.90;;;26.02;35.94;100590.06;4995425;28;96944;-68
2021/04/28 09:24:21;;;;;;;21.17;2.60;;;22.40;47.70;;;26.13;35.70;100598.97;4994808;28;97082;-68
2021/04/28 09:27:28;;;;;;;1.05;0.75;;;22.40;47.50;;;26.29;35.44;100587.41;5000201;28;97095;-69
2021/04/28 09:30:26;;;;;;;1.77;1.25;;;22.50;47.50;;;26.34;35.68;100584.19;4995298;28;96988;-68
2021/04/28 09:33:06;;;;;;;4.20;1.98;;;22.50;47.50;;;26.32;35.63;100581.09;4996884;28;97796;-70
2021/04/28 09:35:34;;;;;;;0.50;0.50;;;22.50;47.30;;;26.14;35.31;100570.31;4998147;28;96893;-69
2021/04/28 09:38:06;;;;;;;6.13;1.60;;;22.50;47.50;;;26.19;35.07;100571.84;5000708;28;96935;-70
2021/04/28 09:40:44;;;;;;;6.15;1.73;;;22.50;47.40;;;25.99;35.88;100574.41;4996921;28;98163;-69
2021/04/28 09:43:13;;;;;;;1.52;1.08;;;22.50;47.30;;;26.17;35.50;100568.72;4994280;28;96894;-69
2021/04/28 09:45:45;;;;;;;1.77;0.93;;;22.60;47.30;;;26.12;35.63;100574.66;5000241;28;96803;-68
2021/04/28 09:48:21;;;;;;;1.10;1.00;;;22.60;47.00;;;25.79;35.71;100569.88;4985560;28;97184;-72
2021/04/28 09:50:50;;;;;;;2.78;1.40;;;22.50;46.80;;;25.53;35.69;100567.78;4999078;28;96868;-73
2021/04/28 09:53:26;;;;;;;1.67;1.55;;;22.40;46.90;;;25.60;35.86;100567.72;5017896;28;97684;-74
2021/04/28 09:55:55;;;;;;;2.03;1.20;;;22.30;46.80;;;25.62;35.98;100559.84;5002759;28;97124;-72
2021/04/28 09:58:51;;;;;;;2.53;1.40;;;22.30;47.00;;;25.76;35.18;100559.72;4999413;28;97089;-72
2021/04/28 10:01:33;;;;;;;1.17;1.00;;;22.30;46.60;;;25.80;35.29;100558.50;5000973;28;96861;-71
2021/04/28 10:04:07;;;;;;;1.45;1.35;;;22.30;46.70;;;25.98;35.03;100555.59;4998850;28;97971;-72
2021/04/28 10:06:43;;;;;;;1.55;0.98;;;22.40;46.80;;;25.92;35.21;100557.22;5003554;28;96845;-69
2021/04/28 10:09:30;;;;;;;1.50;1.08;;;22.40;46.40;;;25.92;35.29;100558.00;5002170;28;97749;-69
2021/04/28 10:12:00;;;;;;;0.63;0.60;;;22.40;46.40;;;25.96;34.40;100555.97;4999103;28;99856;-69
2021/04/28 10:14:35;;;;;;;2.97;2.67;;;22.50;46.70;;;26.18;34.51;100551.06;5001845;28;97186;-69
2021/04/28 10:17:09;;;;;;;2.85;0.77;;;22.50;46.40;;;26.16;34.84;100537.72;4998156;28;96757;-68
2021/04/28 10:19:39;;;;;;;5.13;1.75;;;22.60;46.20;;;26.03;34.50;100546.91;4996959;28;96897;-69
2021/04/28 10:22:11;;;;;;;4.38;1.27;;;22.60;46.30;;;26.14;34.23;100550.31;4999215;28;97150;-69
2021/04/28 10:24:41;;;;;;;34.65;2.20;;;22.60;46.20;;;26.06;34.85;100543.31;4995044;28;97296;-69
2021/04/28 10:27:13;;;;;;;4.55;2.55;;;22.60;46.10;;;25.97;34.33;100548.53;4998717;28;98460;-68
2021/04/28 10:29:42;;;;;;;0.97;0.83;;;22.60;45.90;;;25.81;35.05;100545.53;4994924;28;96851;-67
2021/04/28 10:32:14;;;;;;;1.95;1.02;;;22.50;46.00;;;25.63;35.19;100550.44;4998298;28;97048;-68
2021/04/28 10:34:50;;;;;;;2.75;1.10;;;22.40;46.00;;;25.63;34.73;100542.22;4986215;28;98089;-68
2021/04/28 10:37:22;;;;;;;2.28;1.40;;;22.30;46.20;;;25.70;34.51;100540.19;4992880;28;96855;-68
2021/04/28 10:39:51;;;;;;;2.47;1.35;;;22.20;46.20;;;25.71;34.30;100532.69;4996506;28;96780;-68
2021/04/28 10:42:31;;;;;;;1.52;1.13;;;22.20;46.20;;;25.74;34.96;100529.94;4995368;28;96977;-68